Time;durP1;ratioP1;P1;durP2;ratioP2;P2;SDS_P1;SDS_P2;PMS_P1;PMS_P2;Temp;Humidity;BMP_temperature;BMP_pressure;BME280_temperature;BME280_humidity;BME280_pressure;Samples;Min_cycle;Max_cycle;Signal;HPM_P1;HPM_P2
2022/01/04 00:02:14;;;;;;;;;;;9.50;99.90;;;;;;5056707;28;19917;-60
2022/01/04 00:04:39;;;;;;;;;;;9.40;99.90;;;;;;5057471;28;19983;-60
2022/01/04 00:07:05;;;;;;;;;;;9.50;99.90;;;;;;5058679;28;19921;-60
2022/01/04 00:09:30;;;;;;;;;;;9.30;99.90;;;;;;5043692;28;20391;-60
2022/01/04 00:14:21;;;;;;;;;;;9.40;99.90;;;;;;5060371;28;19920;-59
2022/01/04 00:16:48;;;;;;;;;;;9.50;99.90;;;;;;5056621;28;19960;-60
2022/01/04 00:19:13;;;;;;;;;;;9.60;99.90;;;;;;5054486;28;19928;-60
2022/01/04 00:21:39;;;;;;;;;;;9.50;99.90;;;;;;5057078;28;20470;-60
2022/01/04 00:24:06;;;;;;;;;;;9.30;99.90;;;;;;5058012;28;19920;-59
2022/01/04 00:26:32;;;;;;;;;;;;;;;;;;5058869;28;20393;-60
2022/01/04 00:28:57;;;;;;;;;;;9.10;99.90;;;;;;5057595;28;19920;-59
2022/01/04 00:31:23;;;;;;;;;;;9.30;99.90;;;;;;5056793;28;20350;-60
2022/01/04 00:33:49;;;;;;;;;;;9.20;99.90;;;;;;5056697;28;20492;-60
2022/01/04 00:36:14;;;;;;;;;;;9.10;99.90;;;;;;5057369;28;19912;-60
2022/01/04 00:38:40;;;;;;;;;;;9.00;99.90;;;;;;5057405;28;19944;-59
2022/01/04 00:41:05;;;;;;;;;;;9.00;99.90;;;;;;5057629;28;19922;-60
2022/01/04 00:43:31;;;;;;;;;;;9.10;99.90;;;;;;5058226;28;20329;-60
2022/01/04 00:45:56;;;;;;;;;;;9.20;99.90;;;;;;5056652;28;20295;-60
2022/01/04 00:50:48;;;;;;;;;;;9.20;99.90;;;;;;5057179;28;19920;-59
2022/01/04 00:53:13;;;;;;;;;;;9.10;99.90;;;;;;5058872;28;19936;-60
2022/01/04 00:55:39;;;;;;;;;;;9.20;99.90;;;;;;5057373;28;19923;-59
2022/01/04 00:58:05;;;;;;;;;;;8.90;99.90;;;;;;5057008;28;19921;-59
2022/01/04 01:00:30;;;;;;;;;;;9.00;99.90;;;;;;5057487;28;20306;-60
2022/01/04 01:02:56;;;;;;;;;;;8.90;99.90;;;;;;5056626;28;19916;-60
2022/01/04 01:05:24;;;;;;;;;;;8.90;99.90;;;;;;5043460;28;20059;-60
2022/01/04 01:07:50;;;;;;;;;;;8.70;99.90;;;;;;5057092;28;20563;-59
2022/01/04 01:12:59;;;;;;;;;;;8.80;99.90;;;;;;5056806;28;19923;-60
2022/01/04 01:15:25;;;;;;;;;;;8.80;99.90;;;;;;5058153;28;19913;-60
2022/01/04 01:17:50;;;;;;;;;;;8.70;99.90;;;;;;5059891;28;20454;-59
2022/01/04 01:20:16;;;;;;;;;;;8.80;99.90;;;;;;5061819;28;19917;-59
2022/01/04 01:22:42;;;;;;;;;;;9.00;99.90;;;;;;5061835;28;20062;-59
2022/01/04 01:25:08;;;;;;;;;;;8.80;99.90;;;;;;5061527;28;20015;-59
2022/01/04 01:27:33;;;;;;;;;;;8.80;99.90;;;;;;5061156;28;19955;-60
2022/01/04 01:29:59;;;;;;;;;;;8.80;99.90;;;;;;5061611;28;19952;-60
2022/01/04 01:32:24;;;;;;;;;;;8.60;99.90;;;;;;5059773;28;19982;-60
2022/01/04 01:34:50;;;;;;;;;;;8.80;99.90;;;;;;5059851;28;20184;-60
2022/01/04 01:37:16;;;;;;;;;;;8.80;99.90;;;;;;5060180;28;19963;-60
2022/01/04 01:39:41;;;;;;;;;;;8.90;99.90;;;;;;5060069;28;19916;-60
2022/01/04 01:42:07;;;;;;;;;;;8.90;99.90;;;;;;5061245;28;19944;-59
2022/01/04 01:44:34;;;;;;;;;;;9.00;99.90;;;;;;5061518;28;19970;-60
2022/01/04 01:46:59;;;;;;;;;;;8.90;99.90;;;;;;5060140;28;19967;-60
2022/01/04 01:49:25;;;;;;;;;;;8.70;99.90;;;;;;5064725;28;20732;-59
2022/01/04 01:51:51;;;;;;;;;;;8.70;99.90;;;;;;5066225;28;19912;-59
2022/01/04 01:54:16;;;;;;;;;;;8.70;99.90;;;;;;5064720;28;19920;-59
2022/01/04 01:56:42;;;;;;;;;;;8.70;99.90;;;;;;5063307;28;20011;-60
2022/01/04 01:59:08;;;;;;;;;;;8.80;99.90;;;;;;5066499;28;19939;-60
2022/01/04 02:01:33;;;;;;;;;;;8.80;99.90;;;;;;5063002;28;19928;-61
2022/01/04 02:03:58;;;;;;;;;;;8.80;99.90;;;;;;5051140;28;20515;-59
2022/01/04 02:06:29;;;;;;;;;;;8.80;99.90;;;;;;5066475;28;19934;-60
2022/01/04 02:08:55;;;;;;;;;;;8.70;99.90;;;;;;5062366;28;19925;-59
2022/01/04 02:11:21;;;;;;;;;;;8.70;99.90;;;;;;5060099;28;19912;-59
2022/01/04 02:13:47;;;;;;;;;;;8.70;99.90;;;;;;5060435;28;20178;-60
2022/01/04 02:16:13;;;;;;;;;;;8.70;99.90;;;;;;5059779;28;19926;-59
2022/01/04 02:18:38;;;;;;;;;;;8.70;99.90;;;;;;5059232;28;20658;-61
2022/01/04 02:21:04;;;;;;;;;;;8.60;99.90;;;;;;5060101;28;19943;-59
2022/01/04 02:23:29;;;;;;;;;;;8.70;99.90;;;;;;5059687;28;19970;-59
2022/01/04 02:25:56;;;;;;;;;;;8.60;99.90;;;;;;5059676;28;19952;-60
2022/01/04 02:28:22;;;;;;;;;;;8.70;99.90;;;;;;5059049;28;19919;-60
2022/01/04 02:30:48;;;;;;;;;;;8.80;99.90;;;;;;5060737;28;19920;-60
2022/01/04 02:33:14;;;;;;;;;;;8.80;99.90;;;;;;5047531;28;19967;-60
2022/01/04 02:35:39;;;;;;;;;;;9.00;99.90;;;;;;5059042;28;19917;-60
2022/01/04 02:38:05;;;;;;;;;;;8.90;99.90;;;;;;5061521;28;19923;-59
2022/01/04 02:40:31;;;;;;;;;;;8.80;99.90;;;;;;5060076;28;20267;-60
2022/01/04 02:42:57;;;;;;;;;;;8.60;99.90;;;;;;5060648;28;20555;-60
2022/01/04 02:45:22;;;;;;;;;;;8.50;99.90;;;;;;5059306;28;19929;-60
2022/01/04 02:47:48;;;;;;;;;;;8.60;99.90;;;;;;5058457;28;19930;-60
2022/01/04 02:50:13;;;;;;;;;;;8.60;99.90;;;;;;5059316;28;19948;-61
2022/01/04 02:52:39;;;;;;;;;;;8.50;99.90;;;;;;5060161;28;19935;-60
2022/01/04 02:55:06;;;;;;;;;;;8.40;99.90;;;;;;5059925;28;20012;-60
2022/01/04 02:57:31;;;;;;;;;;;8.50;99.90;;;;;;5059855;28;19913;-59
2022/01/04 02:59:57;;;;;;;;;;;8.60;99.90;;;;;;5046785;28;19913;-60
2022/01/04 03:02:23;;;;;;;;;;;8.60;99.90;;;;;;5044253;28;19928;-60
2022/01/04 03:04:49;;;;;;;;;;;8.80;99.90;;;;;;5057704;28;19924;-61
2022/01/04 03:07:14;;;;;;;;;;;8.80;99.90;;;;;;5058765;28;19917;-60
2022/01/04 03:09:40;;;;;;;;;;;8.80;99.90;;;;;;5059932;28;19967;-60
2022/01/04 03:12:06;;;;;;;;;;;8.70;99.90;;;;;;5059223;28;20536;-60
2022/01/04 03:14:31;;;;;;;;;;;8.60;99.90;;;;;;5060101;28;20926;-61
2022/01/04 03:16:57;;;;;;;;;;;8.50;99.90;;;;;;5057957;28;19952;-60
2022/01/04 03:19:22;;;;;;;;;;;8.50;99.90;;;;;;5058808;28;19966;-60
2022/01/04 03:21:48;;;;;;;;;;;8.50;99.90;;;;;;5046174;28;20296;-61
2022/01/04 03:24:14;;;;;;;;;;;8.70;99.90;;;;;;5058922;28;20003;-61
2022/01/04 03:26:40;;;;;;;;;;;8.70;99.90;;;;;;5057606;28;19924;-60
2022/01/04 03:29:07;;;;;;;;;;;8.70;99.90;;;;;;5044186;28;19985;-60
2022/01/04 03:31:32;;;;;;;;;;;8.80;99.90;;;;;;5057127;28;19943;-61
2022/01/04 03:33:58;;;;;;;;;;;8.70;99.90;;;;;;5058000;28;19932;-60
2022/01/04 03:36:24;;;;;;;;;;;8.90;99.90;;;;;;5057239;28;19920;-61
2022/01/04 03:38:51;;;;;;;;;;;8.80;99.90;;;;;;5056545;28;20316;-60
2022/01/04 03:41:17;;;;;;;;;;;8.70;99.90;;;;;;5057040;28;20447;-60
2022/01/04 03:43:43;;;;;;;;;;;8.60;99.90;;;;;;5056729;28;20364;-61
2022/01/04 03:46:08;;;;;;;;;;;8.50;99.90;;;;;;5057646;28;19920;-61
2022/01/04 03:48:34;;;;;;;;;;;8.50;99.90;;;;;;5058048;28;19960;-61
2022/01/04 03:51:00;;;;;;;;;;;8.60;99.90;;;;;;5056928;28;20018;-60
2022/01/04 03:53:25;;;;;;;;;;;8.80;99.90;;;;;;5044762;28;20979;-60
2022/01/04 03:55:50;;;;;;;;;;;8.70;99.90;;;;;;5058108;28;19951;-60
2022/01/04 03:58:16;;;;;;;;;;;8.90;99.90;;;;;;5057133;28;19924;-60
2022/01/04 04:00:41;;;;;;;;;;;8.80;99.90;;;;;;5046094;28;19950;-60
2022/01/04 04:03:07;;;;;;;;;;;8.70;99.90;;;;;;5055312;28;19920;-61
2022/01/04 04:05:32;;;;;;;;;;;8.60;99.90;;;;;;5056717;28;20007;-60
2022/01/04 04:07:58;;;;;;;;;;;8.70;99.90;;;;;;5057272;28;19920;-60
2022/01/04 04:10:23;;;;;;;;;;;8.70;99.90;;;;;;5054465;28;19916;-60
2022/01/04 04:12:49;;;;;;;;;;;8.80;99.90;;;;;;5056966;28;20573;-60
2022/01/04 04:15:14;;;;;;;;;;;8.70;99.90;;;;;;5057109;28;20038;-62
2022/01/04 04:17:40;;;;;;;;;;;8.60;99.90;;;;;;5056758;28;19927;-60
2022/01/04 04:20:05;;;;;;;;;;;8.50;99.90;;;;;;5045720;28;19940;-60
2022/01/04 04:22:31;;;;;;;;;;;8.70;99.90;;;;;;5057946;28;19916;-60
2022/01/04 04:24:56;;;;;;;;;;;8.70;99.90;;;;;;5057697;28;19985;-60
2022/01/04 04:27:22;;;;;;;;;;;8.60;99.90;;;;;;5056281;28;19990;-61
2022/01/04 04:29:47;;;;;;;;;;;8.80;99.90;;;;;;5057187;28;19912;-60
2022/01/04 04:32:13;;;;;;;;;;;8.70;99.90;;;;;;5042490;28;20271;-60
2022/01/04 04:34:38;;;;;;;;;;;8.60;99.90;;;;;;5057812;28;20332;-60
2022/01/04 04:37:04;;;;;;;;;;;8.50;99.90;;;;;;5057265;28;19916;-61
2022/01/04 04:39:29;;;;;;;;;;;8.70;99.90;;;;;;5057750;28;19932;-60
2022/01/04 04:41:55;;;;;;;;;;;8.60;99.90;;;;;;5056697;28;20379;-60
2022/01/04 04:44:20;;;;;;;;;;;8.50;99.90;;;;;;5057726;28;19999;-60
2022/01/04 04:46:46;;;;;;;;;;;8.50;99.90;;;;;;5055326;28;19950;-60
2022/01/04 04:49:11;;;;;;;;;;;8.40;99.90;;;;;;5057117;28;20005;-60
2022/01/04 04:51:37;;;;;;;;;;;8.60;99.90;;;;;;5055363;28;20570;-60
2022/01/04 04:54:03;;;;;;;;;;;8.40;99.90;;;;;;5057436;28;20363;-60
2022/01/04 04:56:28;;;;;;;;;;;8.30;99.90;;;;;;5057656;28;19917;-60
2022/01/04 04:58:54;;;;;;;;;;;8.50;99.90;;;;;;5056707;28;19923;-61
2022/01/04 05:01:19;;;;;;;;;;;8.50;99.90;;;;;;5056463;28;20363;-60
2022/01/04 05:03:45;;;;;;;;;;;8.50;99.90;;;;;;5056368;28;19916;-61
2022/01/04 05:06:10;;;;;;;;;;;8.60;99.90;;;;;;5057106;28;20047;-61
2022/01/04 05:08:36;;;;;;;;;;;8.70;99.90;;;;;;5056229;28;19917;-60
2022/01/04 05:11:02;;;;;;;;;;;8.80;99.90;;;;;;5058448;28;19912;-60
2022/01/04 05:13:27;;;;;;;;;;;8.50;99.90;;;;;;5056972;28;19916;-60
2022/01/04 05:15:53;;;;;;;;;;;8.60;99.90;;;;;;5057037;28;20019;-61
2022/01/04 05:18:19;;;;;;;;;;;8.70;99.90;;;;;;5056145;28;19921;-60
2022/01/04 05:20:44;;;;;;;;;;;8.80;99.90;;;;;;5056512;28;20039;-61
2022/01/04 05:23:10;;;;;;;;;;;8.70;99.90;;;;;;5045015;28;19920;-60
2022/01/04 05:25:35;;;;;;;;;;;8.60;99.90;;;;;;5057465;28;19921;-61
2022/01/04 05:28:01;;;;;;;;;;;8.50;99.90;;;;;;5057990;28;20541;-61
2022/01/04 05:30:26;;;;;;;;;;;8.60;99.90;;;;;;5056094;28;19917;-61
2022/01/04 05:32:51;;;;;;;;;;;8.60;99.90;;;;;;5055714;28;20428;-60
2022/01/04 05:35:17;;;;;;;;;;;8.50;99.90;;;;;;5055225;28;19977;-61
2022/01/04 05:37:42;;;;;;;;;;;8.50;99.90;;;;;;5055710;28;19989;-60
2022/01/04 05:40:08;;;;;;;;;;;8.60;99.90;;;;;;5057068;28;19921;-60
2022/01/04 05:42:34;;;;;;;;;;;8.70;99.90;;;;;;5056052;28;20048;-60
2022/01/04 05:44:59;;;;;;;;;;;8.70;99.90;;;;;;5056642;28;19916;-61
2022/01/04 05:47:25;;;;;;;;;;;8.70;99.90;;;;;;5056289;28;20339;-60
2022/01/04 05:49:51;;;;;;;;;;;8.60;99.90;;;;;;5056415;28;19947;-60
2022/01/04 05:52:17;;;;;;;;;;;8.60;99.90;;;;;;5054916;28;20072;-60
2022/01/04 05:54:43;;;;;;;;;;;8.60;99.90;;;;;;5042740;28;19916;-60
2022/01/04 05:57:09;;;;;;;;;;;8.70;99.90;;;;;;5056622;28;19927;-60
2022/01/04 05:59:35;;;;;;;;;;;8.60;99.90;;;;;;5056017;28;20437;-61
2022/01/04 06:02:00;;;;;;;;;;;8.50;99.90;;;;;;5044968;28;19920;-60
2022/01/04 06:04:26;;;;;;;;;;;8.50;99.90;;;;;;5059941;28;19958;-61
2022/01/04 06:06:51;;;;;;;;;;;8.60;99.90;;;;;;5061252;28;19928;-60
2022/01/04 06:09:25;;;;;;;;;;;8.40;99.90;;;;;;5058599;28;20191;-60
2022/01/04 06:17:00;;;;;;;;;;;8.40;99.90;;;;;;5060135;28;19965;-60
2022/01/04 06:19:25;;;;;;;;;;;8.40;99.90;;;;;;5059651;28;20447;-60
2022/01/04 06:21:51;;;;;;;;;;;8.70;99.90;;;;;;5046639;28;20063;-61
2022/01/04 06:24:16;;;;;;;;;;;8.50;99.90;;;;;;5059014;28;20002;-60
2022/01/04 06:26:42;;;;;;;;;;;8.50;99.90;;;;;;5058793;28;19925;-60
2022/01/04 06:29:08;;;;;;;;;;;8.60;99.90;;;;;;5046517;28;19916;-61
2022/01/04 06:31:34;;;;;;;;;;;8.70;99.90;;;;;;5053515;28;19932;-60
2022/01/04 06:33:59;;;;;;;;;;;8.60;99.90;;;;;;5061141;28;19924;-60
2022/01/04 06:36:25;;;;;;;;;;;8.50;99.90;;;;;;5060237;28;19921;-60
2022/01/04 06:38:50;;;;;;;;;;;8.60;99.90;;;;;;5059528;28;20018;-61
2022/01/04 06:41:16;;;;;;;;;;;8.70;99.90;;;;;;5059660;28;19913;-61
2022/01/04 06:43:41;;;;;;;;;;;8.70;99.90;;;;;;5059369;28;19916;-61
2022/01/04 06:46:08;;;;;;;;;;;8.70;99.90;;;;;;5058661;28;19981;-61
2022/01/04 06:48:33;;;;;;;;;;;8.60;99.90;;;;;;5058764;28;20578;-61
2022/01/04 06:50:59;;;;;;;;;;;8.50;99.90;;;;;;5059138;28;19920;-61
2022/01/04 06:53:24;;;;;;;;;;;8.50;99.90;;;;;;5059021;28;20458;-61
2022/01/04 06:55:50;;;;;;;;;;;8.30;99.90;;;;;;5058681;28;20422;-61
2022/01/04 06:58:17;;;;;;;;;;;8.40;99.90;;;;;;5046470;28;19928;-60
2022/01/04 07:00:42;;;;;;;;;;;8.50;99.90;;;;;;5054997;28;20003;-60
2022/01/04 07:03:08;;;;;;;;;;;8.60;99.90;;;;;;5058602;28;20644;-61
2022/01/04 07:05:35;;;;;;;;;;;8.70;99.90;;;;;;5059531;28;20405;-61
2022/01/04 07:08:01;;;;;;;;;;;8.50;99.90;;;;;;5059514;28;20455;-60
2022/01/04 07:10:26;;;;;;;;;;;8.60;99.90;;;;;;5058245;28;19917;-61
2022/01/04 07:12:52;;;;;;;;;;;8.50;99.90;;;;;;5057301;28;19916;-61
2022/01/04 07:15:17;;;;;;;;;;;8.40;99.90;;;;;;5059437;28;20279;-60
2022/01/04 07:17:43;;;;;;;;;;;8.30;99.90;;;;;;5058082;28;19924;-60
2022/01/04 07:20:09;;;;;;;;;;;8.50;99.90;;;;;;5058052;28;19932;-60
2022/01/04 07:22:36;;;;;;;;;;;8.40;99.90;;;;;;5057115;28;20337;-60
2022/01/04 07:25:02;;;;;;;;;;;8.30;99.90;;;;;;5060393;28;19917;-61
2022/01/04 07:27:27;;;;;;;;;;;8.30;99.90;;;;;;5059704;28;19948;-60
2022/01/04 07:29:53;;;;;;;;;;;8.20;99.90;;;;;;5030608;28;20280;-60
2022/01/04 07:32:18;;;;;;;;;;;8.30;99.90;;;;;;5056200;28;20015;-60
2022/01/04 07:34:44;;;;;;;;;;;8.30;99.90;;;;;;5058543;28;19967;-60
2022/01/04 07:37:09;;;;;;;;;;;8.30;99.90;;;;;;5057491;28;20373;-61
2022/01/04 07:39:35;;;;;;;;;;;8.40;99.90;;;;;;5058879;28;19928;-60
2022/01/04 07:42:02;;;;;;;;;;;8.30;99.90;;;;;;5059813;28;20409;-60
2022/01/04 07:44:27;;;;;;;;;;;8.40;99.90;;;;;;5058120;28;19924;-60
2022/01/04 07:46:53;;;;;;;;;;;8.50;99.90;;;;;;5058023;28;20290;-60
2022/01/04 07:49:19;;;;;;;;;;;8.60;99.90;;;;;;5057080;28;20043;-60
2022/01/04 07:51:44;;;;;;;;;;;8.60;99.90;;;;;;5044694;28;20337;-60
2022/01/04 07:54:10;;;;;;;;;;;8.60;99.90;;;;;;5057362;28;20014;-60
2022/01/04 07:56:36;;;;;;;;;;;8.60;99.90;;;;;;5057248;28;19958;-61
2022/01/04 07:59:01;;;;;;;;;;;8.50;99.90;;;;;;5046369;28;19922;-61
2022/01/04 08:01:30;;;;;;;;;;;8.50;99.90;;;;;;5054293;28;20313;-61
2022/01/04 08:03:55;;;;;;;;;;;8.50;99.90;;;;;;5056410;28;20004;-60
2022/01/04 08:06:21;;;;;;;;;;;8.40;99.90;;;;;;5056207;28;20015;-61
2022/01/04 08:08:46;;;;;;;;;;;8.40;99.90;;;;;;5055968;28;19920;-61
2022/01/04 08:11:12;;;;;;;;;;;8.50;99.90;;;;;;5055513;28;19916;-62
2022/01/04 08:13:37;;;;;;;;;;;8.40;99.90;;;;;;5045547;28;20359;-61
2022/01/04 08:16:03;;;;;;;;;;;8.40;99.90;;;;;;5056775;28;20269;-60
2022/01/04 08:18:28;;;;;;;;;;;8.30;99.90;;;;;;5057743;28;19916;-61
2022/01/04 08:20:57;;;;;;;;;;;8.40;99.90;;;;;;5056976;28;19977;-61
2022/01/04 08:23:26;;;;;;;;;;;8.50;99.90;;;;;;5056465;28;19960;-61
2022/01/04 08:25:52;;;;;;;;;;;8.60;99.90;;;;;;5056698;28;19971;-62
2022/01/04 08:28:17;;;;;;;;;;;8.50;99.90;;;;;;5055781;28;20363;-61
2022/01/04 08:30:43;;;;;;;;;;;8.50;99.90;;;;;;5056699;28;20478;-62
2022/01/04 08:33:09;;;;;;;;;;;8.70;99.90;;;;;;5055809;28;20367;-61
2022/01/04 08:35:34;;;;;;;;;;;8.60;99.90;;;;;;5056633;28;19943;-61
2022/01/04 08:38:00;;;;;;;;;;;8.60;99.90;;;;;;5056712;28;19916;-61
2022/01/04 08:40:25;;;;;;;;;;;8.60;99.90;;;;;;5057467;28;19912;-62
2022/01/04 08:42:51;;;;;;;;;;;8.40;99.90;;;;;;5055708;28;20329;-61
2022/01/04 08:45:17;;;;;;;;;;;8.50;99.90;;;;;;5056583;28;19916;-61
2022/01/04 08:47:43;;;;;;;;;;;8.50;99.90;;;;;;5054222;28;20249;-61
2022/01/04 08:50:10;;;;;;;;;;;8.40;99.90;;;;;;5055937;28;20720;-61
2022/01/04 08:52:35;;;;;;;;;;;8.20;99.90;;;;;;5056579;28;19917;-61
2022/01/04 08:55:01;;;;;;;;;;;8.10;99.90;;;;;;5044007;28;19917;-61
2022/01/04 08:57:27;;;;;;;;;;;8.10;99.90;;;;;;5044280;28;19951;-61
2022/01/04 08:59:54;;;;;;;;;;;8.30;99.90;;;;;;5055875;28;19931;-61
2022/01/04 09:02:20;;;;;;;;;;;8.30;99.90;;;;;;5055181;28;19931;-62
2022/01/04 09:04:46;;;;;;;;;;;9.50;99.90;;;;;;5056013;28;19999;-62
2022/01/04 09:07:11;;;;;;;;;;;8.60;99.90;;;;;;5043220;28;19999;-61
2022/01/04 09:09:37;;;;;;;;;;;8.60;99.90;;;;;;5055066;28;19920;-62
2022/01/04 09:12:02;;;;;;;;;;;8.50;99.90;;;;;;5056351;28;19923;-62
2022/01/04 09:14:41;;;;;;;;;;;8.50;99.90;;;;;;5056853;28;19947;-61
2022/01/04 09:19:51;;;;;;;;;;;8.70;99.90;;;;;;5056729;28;19989;-62
2022/01/04 09:22:17;;;;;;;;;;;8.50;99.90;;;;;;5055521;28;20463;-62
2022/01/04 09:24:42;;;;;;;;;;;8.40;99.90;;;;;;5056346;28;19916;-62
2022/01/04 09:27:10;;;;;;;;;;;8.50;99.90;;;;;;5041179;28;19920;-61
2022/01/04 09:29:35;;;;;;;;;;;8.40;99.90;;;;;;5042527;28;19920;-62
2022/01/04 09:32:02;;;;;;;;;;;8.50;99.90;;;;;;5054945;28;19916;-62
2022/01/04 09:34:28;;;;;;;;;;;8.50;99.90;;;;;;5056647;28;19948;-62
2022/01/04 09:36:53;;;;;;;;;;;8.60;99.90;;;;;;5058387;28;19921;-62
2022/01/04 09:39:21;;;;;;;;;;;8.50;99.90;;;;;;5060340;28;20357;-62
2022/01/04 09:41:47;;;;;;;;;;;8.60;99.90;;;;;;5058705;28;20893;-62
2022/01/04 09:44:13;;;;;;;;;;;8.80;99.90;;;;;;5060311;28;19921;-61
2022/01/04 09:46:39;;;;;;;;;;;8.80;99.90;;;;;;5060606;28;20525;-61
2022/01/04 09:49:05;;;;;;;;;;;8.90;99.90;;;;;;5059471;28;19921;-62
2022/01/04 09:51:31;;;;;;;;;;;8.90;99.90;;;;;;5060290;28;19924;-62
2022/01/04 09:53:56;;;;;;;;;;;8.90;99.90;;;;;;5059451;28;20394;-61
2022/01/04 09:56:22;;;;;;;;;;;8.90;99.90;;;;;;5058658;28;19925;-62
2022/01/04 09:58:48;;;;;;;;;;;8.70;99.90;;;;;;5059683;28;20657;-62
2022/01/04 10:01:23;;;;;;;;;;;8.70;99.90;;;;;;5058582;28;19927;-61
2022/01/04 10:03:49;;;;;;;;;;;8.90;99.90;;;;;;5059116;28;19924;-61
2022/01/04 10:06:15;;;;;;;;;;;8.80;99.90;;;;;;5058905;28;20303;-62
2022/01/04 10:08:53;;;;;;;;;;;8.90;99.90;;;;;;5059476;28;20109;-61
2022/01/04 10:11:28;;;;;;;;;;;8.90;99.90;;;;;;5058871;28;19916;-61
2022/01/04 10:13:53;;;;;;;;;;;8.90;99.90;;;;;;5059929;28;19916;-62
2022/01/04 10:16:19;;;;;;;;;;;9.00;99.90;;;;;;5058046;28;19973;-61
2022/01/04 10:18:48;;;;;;;;;;;8.90;99.90;;;;;;5059187;28;20363;-62
2022/01/04 10:21:14;;;;;;;;;;;8.90;99.90;;;;;;5059038;28;19928;-62
2022/01/04 10:23:51;;;;;;;;;;;8.90;99.90;;;;;;5059971;28;20406;-61
2022/01/04 10:26:25;;;;;;;;;;;8.90;99.90;;;;;;5059027;28;19982;-61
2022/01/04 10:28:51;;;;;;;;;;;8.90;99.90;;;;;;5046709;28;20323;-62
2022/01/04 10:31:18;;;;;;;;;;;8.90;99.90;;;;;;5059082;28;19935;-61
2022/01/04 10:33:43;;;;;;;;;;;8.90;99.90;;;;;;5059348;28;19974;-62
2022/01/04 10:36:13;;;;;;;;;;;9.00;99.90;;;;;;5059391;28;19920;-61
2022/01/04 10:38:38;;;;;;;;;;;9.10;99.90;;;;;;5058921;28;20347;-62
2022/01/04 10:41:07;;;;;;;;;;;9.00;99.90;;;;;;5059469;28;19951;-62
2022/01/04 10:43:36;;;;;;;;;;;8.90;99.90;;;;;;5060188;28;19943;-62
2022/01/04 10:46:02;;;;;;;;;;;9.00;99.90;;;;;;5058203;28;20107;-61
2022/01/04 10:48:29;;;;;;;;;;;8.90;99.90;;;;;;5057533;28;19913;-61
2022/01/04 10:51:03;;;;;;;;;;;8.80;99.90;;;;;;5059272;28;19980;-61
2022/01/04 10:53:30;;;;;;;;;;;8.80;99.90;;;;;;5058880;28;19925;-61
2022/01/04 10:55:59;;;;;;;;;;;8.90;99.90;;;;;;5056506;28;19995;-62
2022/01/04 10:58:32;;;;;;;;;;;8.90;99.90;;;;;;5059648;28;19920;-62
2022/01/04 11:01:00;;;;;;;;;;;9.00;99.90;;;;;;5059094;28;20397;-61
2022/01/04 11:03:30;;;;;;;;;;;9.00;99.90;;;;;;5059649;28;19912;-62
2022/01/04 11:06:01;;;;;;;;;;;9.00;99.90;;;;;;5058399;28;20034;-62
2022/01/04 11:08:28;;;;;;;;;;;8.90;99.90;;;;;;5058695;28;20002;-62
2022/01/04 11:10:55;;;;;;;;;;;9.00;99.90;;;;;;5058903;28;19920;-62
2022/01/04 11:13:21;;;;;;;;;;;9.10;99.90;;;;;;5057862;28;19920;-61
2022/01/04 11:15:46;;;;;;;;;;;9.00;99.90;;;;;;5059230;28;19932;-61
2022/01/04 11:18:12;;;;;;;;;;;9.00;99.90;;;;;;5058437;28;19920;-61
2022/01/04 11:20:38;;;;;;;;;;;9.00;99.90;;;;;;5047315;28;19939;-61
2022/01/04 11:23:04;;;;;;;;;;;9.10;99.90;;;;;;5055264;28;19916;-62
2022/01/04 11:25:30;;;;;;;;;;;9.00;99.90;;;;;;5060039;28;19916;-61
2022/01/04 11:27:57;;;;;;;;;;;8.90;99.90;;;;;;5057879;28;20501;-62
2022/01/04 11:30:25;;;;;;;;;;;9.00;99.90;;;;;;5060282;28;20330;-61
2022/01/04 11:32:53;;;;;;;;;;;9.00;99.90;;;;;;5056693;28;20394;-62
2022/01/04 11:35:21;;;;;;;;;;;9.00;99.90;;;;;;5056858;28;21026;-62
2022/01/04 11:37:54;;;;;;;;;;;9.00;99.90;;;;;;5043308;28;19920;-62
2022/01/04 11:40:29;;;;;;;;;;;9.00;99.90;;;;;;5043356;28;19916;-62
2022/01/04 11:42:55;;;;;;;;;;;9.00;99.90;;;;;;5057761;28;19924;-62
2022/01/04 11:45:59;;;;;;;;;;;9.00;99.90;;;;;;5056971;28;19943;-60
2022/01/04 11:48:26;;;;;;;;;;;9.10;99.90;;;;;;5000254;28;19928;-62
2022/01/04 11:50:56;;;;;;;;;;;9.10;99.90;;;;;;5000306;28;19961;-61
2022/01/04 11:53:21;;;;;;;;;;;9.10;99.90;;;;;;5029574;28;20027;-61
2022/01/04 11:55:48;;;;;;;;;;;9.10;99.90;;;;;;5058181;28;20513;-62
2022/01/04 11:58:15;;;;;;;;;;;9.00;99.90;;;;;;5057629;28;19920;-62
2022/01/04 12:00:42;;;;;;;;;;;9.10;99.90;;;;;;5057752;28;19929;-61
2022/01/04 12:03:09;;;;;;;;;;;9.10;99.90;;;;;;5056203;28;20012;-61
2022/01/04 12:05:36;;;;;;;;;;;9.00;99.90;;;;;;5056546;28;19916;-62
2022/01/04 12:08:21;;;;;;;;;;;8.90;99.90;;;;;;5057962;28;20306;-62
2022/01/04 12:10:47;;;;;;;;;;;9.00;99.90;;;;;;5057955;28;20134;-62
2022/01/04 12:13:14;;;;;;;;;;;9.00;99.90;;;;;;5056832;28;19923;-62
2022/01/04 12:15:47;;;;;;;;;;;9.10;99.90;;;;;;5046199;28;20007;-62
2022/01/04 12:18:31;;;;;;;;;;;9.10;99.90;;;;;;5055400;28;20457;-61
2022/01/04 12:20:58;;;;;;;;;;;9.10;99.90;;;;;;5058189;28;19917;-62
2022/01/04 12:23:27;;;;;;;;;;;9.00;99.90;;;;;;5057180;28;19963;-62
2022/01/04 12:26:04;;;;;;;;;;;9.10;99.90;;;;;;5054940;28;20328;-62
2022/01/04 12:28:59;;;;;;;;;;;9.00;99.90;;;;;;5056481;28;19980;-62
2022/01/04 12:31:25;;;;;;;;;;;8.90;99.90;;;;;;5029225;28;20394;-61
2022/01/04 12:33:58;;;;;;;;;;;9.00;99.90;;;;;;5057546;28;19925;-61
2022/01/04 12:36:37;;;;;;;;;;;8.90;99.90;;;;;;5057356;28;19920;-62
2022/01/04 12:39:04;;;;;;;;;;;8.90;99.90;;;;;;5057785;28;20344;-62
2022/01/04 12:41:30;;;;;;;;;;;9.00;99.90;;;;;;5056341;28;20338;-62
2022/01/04 12:43:56;;;;;;;;;;;9.00;99.90;;;;;;5061412;28;20352;-62
2022/01/04 12:46:34;;;;;;;;;;;9.10;99.90;;;;;;5061029;28;19967;-62
2022/01/04 12:49:02;;;;;;;;;;;9.00;99.90;;;;;;5058559;28;19939;-62
2022/01/04 12:51:38;;;;;;;;;;;9.00;99.90;;;;;;5056287;28;19920;-62
2022/01/04 12:54:06;;;;;;;;;;;8.90;99.90;;;;;;5062412;28;19959;-63
2022/01/04 12:56:32;;;;;;;;;;;9.00;99.90;;;;;;5057641;28;19921;-61
2022/01/04 12:58:58;;;;;;;;;;;9.00;99.90;;;;;;5044030;28;19971;-62
2022/01/04 13:01:33;;;;;;;;;;;9.00;99.90;;;;;;5056390;28;19967;-62
2022/01/04 13:03:59;;;;;;;;;;;9.10;99.90;;;;;;5045068;28;20383;-61
2022/01/04 13:06:26;;;;;;;;;;;9.20;99.90;;;;;;5056224;28;20043;-62
2022/01/04 13:08:52;;;;;;;;;;;9.10;99.90;;;;;;5057047;28;20410;-62
2022/01/04 13:11:17;;;;;;;;;;;9.10;99.90;;;;;;5056677;28;19916;-61
2022/01/04 13:13:43;;;;;;;;;;;9.20;99.90;;;;;;5055957;28;20339;-62
2022/01/04 13:16:18;;;;;;;;;;;9.20;99.90;;;;;;5045348;28;19916;-62
2022/01/04 13:18:43;;;;;;;;;;;9.10;99.90;;;;;;5056609;28;20000;-62
2022/01/04 13:21:09;;;;;;;;;;;9.10;99.90;;;;;;5057408;28;20019;-61
2022/01/04 13:23:38;;;;;;;;;;;9.00;99.90;;;;;;5042359;28;19967;-62
2022/01/04 13:26:04;;;;;;;;;;;8.90;99.90;;;;;;5056250;28;19928;-62
2022/01/04 13:28:30;;;;;;;;;;;9.00;99.90;;;;;;5056962;28;19946;-61
2022/01/04 13:30:55;;;;;;;;;;;9.10;99.90;;;;;;5057885;28;19924;-61
2022/01/04 13:33:24;;;;;;;;;;;9.10;99.90;;;;;;5054941;28;20431;-61
2022/01/04 13:35:50;;;;;;;;;;;9.20;99.90;;;;;;5043036;28;19928;-61
2022/01/04 13:38:17;;;;;;;;;;;9.10;99.90;;;;;;5044103;28;20791;-61
2022/01/04 13:40:44;;;;;;;;;;;9.10;99.90;;;;;;5056792;28;19981;-61
2022/01/04 13:43:10;;;;;;;;;;;9.10;99.90;;;;;;5055711;28;19912;-61
2022/01/04 13:45:41;;;;;;;;;;;9.00;99.90;;;;;;5052144;28;19927;-61
2022/01/04 13:48:06;;;;;;;;;;;9.10;99.90;;;;;;5054974;28;20046;-60
2022/01/04 13:50:43;;;;;;;;;;;9.00;99.90;;;;;;5057723;28;19920;-61
2022/01/04 13:53:08;;;;;;;;;;;8.90;99.90;;;;;;5057901;28;20323;-61
2022/01/04 13:55:58;;;;;;;;;;;8.90;99.90;;;;;;5055300;28;20409;-61
2022/01/04 13:58:42;;;;;;;;;;;8.70;99.90;;;;;;5055407;28;19927;-61
2022/01/04 14:01:29;;;;;;;;;;;8.60;99.90;;;;;;5054743;28;20403;-61
2022/01/04 14:04:14;;;;;;;;;;;8.60;99.90;;;;;;5055968;28;19924;-61
2022/01/04 14:06:49;;;;;;;;;;;8.30;99.90;;;;;;5055055;28;20404;-61
2022/01/04 14:09:17;;;;;;;;;;;8.50;99.90;;;;;;5053780;28;20287;-61
2022/01/04 14:11:47;;;;;;;;;;;8.40;99.90;;;;;;5055845;28;19917;-61
2022/01/04 14:14:14;;;;;;;;;;;8.50;99.90;;;;;;5057619;28;19912;-60
2022/01/04 14:16:40;;;;;;;;;;;8.50;99.90;;;;;;5055661;28;19998;-62
2022/01/04 14:19:08;;;;;;;;;;;8.40;99.90;;;;;;5055611;28;19950;-61
2022/01/04 14:21:35;;;;;;;;;;;8.40;99.90;;;;;;5056463;28;20244;-62
2022/01/04 14:24:01;;;;;;;;;;;8.30;99.90;;;;;;5048763;28;20268;-62
2022/01/04 14:26:27;;;;;;;;;;;8.40;99.90;;;;;;5056714;28;20438;-61
2022/01/04 14:28:53;;;;;;;;;;;8.20;99.90;;;;;;5059293;28;21249;-60
2022/01/04 14:31:19;;;;;;;;;;;8.20;99.90;;;;;;5057021;28;19924;-61
2022/01/04 14:33:44;;;;;;;;;;;8.20;99.90;;;;;;5059058;28;20283;-61
2022/01/04 14:36:10;;;;;;;;;;;8.20;99.90;;;;;;5059317;28;19967;-61
2022/01/04 14:38:35;;;;;;;;;;;8.10;99.90;;;;;;5058770;28;20172;-61
2022/01/04 14:41:01;;;;;;;;;;;8.10;99.90;;;;;;5045604;28;20157;-61
2022/01/04 14:43:26;;;;;;;;;;;8.10;99.90;;;;;;5047194;28;19938;-61
2022/01/04 14:45:52;;;;;;;;;;;8.20;99.90;;;;;;5058316;28;19914;-61